Авиационная погода в Брянске

Регион: 
Погода METAR: 
UUBP 290530Z 00000MPS M0200 R16/0175N +SN OVC003 M01/M01 Q1002 R16/590535 NOSIG RMK QBB090 QFE734/0978
Время наблюдения
2022-01-29T05:30:00Z
Температура C
-1.0
Точка росы
-1.0
Направление ветра
0
Скорость ветра (узлы)
0
Метео видимость
0.12
Облачность
OVC
Нижняя граница облачности (футы)
300
Явления погоды
+SN
Условия полета
LIFR
Аэропорт подробнее: 
OVC – сплошная облачность;
+SN – сильный снег;